LEJR/XRY METAR and TAF weather

Enter ICAO airport designator
Station Type Date Time Source
LEJR METAR 2021/09/27 07:30 UTC NOAA

LEJR 270730Z VRB01KT CAVOK 15/15 Q1021


Station Type Date Time Source
LEJR Decoded METAR 2021/09/27 07:30 UTC NOAA

Jerez De La Fronteraaeropuerto, Spain (LEJR) 36-45N 006-04W 28M
Sep 27, 2021 - 03:30 AM EDT / 2021.09.27 0730 UTC
Wind: Variable at 1 MPH (1 KT):0
Visibility: greater than 7 mile(s):0
Temperature: 59 F (15 C)
Dew Point: 59 F (15 C)
Relative Humidity: 100%
Pressure (altimeter): 30.15 in. Hg (1021 hPa)
ob: LEJR 270730Z VRB01KT CAVOK 15/15 Q1021
cycle: 7

Station Type Date Time Source
LEJR TAF 2021/09/27 03:27 UTC NOAA

TAF LEJR 270200Z 2703/2803 VRB02KT CAVOK TX31/2714Z TN16/2706Z PROB30
TEMPO 2703/2709 3000 BR
BECMG 2713/2715 27010KT
BECMG 2720/2722 VRB02KT

Example: see airport list